createdAt,value
2023-04-04T00:01:49.578Z,5.93
2023-04-04T00:04:17.655Z,4.07
2023-04-04T00:06:45.838Z,2.33
2023-04-04T00:09:13.241Z,4.65
2023-04-04T00:11:42.458Z,3.58
2023-04-04T00:14:09.783Z,4.35
2023-04-04T00:16:36.992Z,4.88
2023-04-04T00:19:04.335Z,3.63
2023-04-04T00:21:31.665Z,3.22
2023-04-04T00:23:59.503Z,2.97
2023-04-04T00:26:26.776Z,3.00
2023-04-04T00:28:54.254Z,5.53
2023-04-04T00:31:21.862Z,5.93
2023-04-04T00:33:49.011Z,3.35
2023-04-04T00:36:16.304Z,3.55
2023-04-04T00:38:43.493Z,5.10
2023-04-04T00:41:12.259Z,3.45
2023-04-04T00:43:39.476Z,3.55
2023-04-04T00:46:08.734Z,3.78
2023-04-04T00:48:36.482Z,4.25
2023-04-04T00:51:03.675Z,3.90
2023-04-04T00:53:30.851Z,7.03
2023-04-04T00:55:58.047Z,5.57
2023-04-04T00:58:25.667Z,3.67
2023-04-04T01:00:53.141Z,3.00
2023-04-04T01:03:20.277Z,5.30
2023-04-04T01:05:47.446Z,3.75
2023-04-04T01:08:15.235Z,3.80
2023-04-04T01:10:42.566Z,3.15
2023-04-04T01:13:10.138Z,5.00
2023-04-04T01:15:37.259Z,4.07
2023-04-04T01:18:04.768Z,5.72
2023-04-04T01:20:34.817Z,4.10
2023-04-04T01:23:02.603Z,4.93
2023-04-04T01:25:32.163Z,3.55
2023-04-04T01:28:00.368Z,3.33
2023-04-04T01:30:29.258Z,3.28
2023-04-04T01:33:00.459Z,4.65
2023-04-04T01:35:39.528Z,3.80
2023-04-04T01:38:28.393Z,3.90
2023-04-04T01:41:03.622Z,5.40
2023-04-04T01:43:33.645Z,3.15
2023-04-04T01:46:01.368Z,4.22
2023-04-04T01:48:28.940Z,3.05
2023-04-04T01:50:56.984Z,4.32
2023-04-04T01:53:24.130Z,5.28
2023-04-04T01:55:51.259Z,3.83
2023-04-04T01:58:18.428Z,4.90
2023-04-04T02:00:45.889Z,4.43
2023-04-04T02:03:13.023Z,3.72
2023-04-04T02:05:40.986Z,3.92
2023-04-04T02:08:08.301Z,4.93
2023-04-04T02:10:35.485Z,3.90
2023-04-04T02:13:02.663Z,3.28
2023-04-04T02:15:29.808Z,2.85
2023-04-04T02:17:57.022Z,5.05
2023-04-04T02:20:24.213Z,3.65
2023-04-04T02:22:55.029Z,4.82
2023-04-04T02:25:25.888Z,7.25
2023-04-04T02:27:53.095Z,3.67
2023-04-04T02:30:20.378Z,7.82
2023-04-04T02:32:48.908Z,3.38
2023-04-04T02:35:19.303Z,4.80
2023-04-04T02:37:47.480Z,4.78
2023-04-04T02:40:14.929Z,5.72
2023-04-04T02:42:45.571Z,7.13
2023-04-04T02:45:14.473Z,3.75
2023-04-04T02:47:42.611Z,6.63
2023-04-04T02:50:10.973Z,3.47
2023-04-04T02:52:38.256Z,4.70
2023-04-04T02:55:05.907Z,5.90
2023-04-04T02:57:33.107Z,4.15
2023-04-04T03:00:00.371Z,3.25
2023-04-04T03:02:27.645Z,4.28
2023-04-04T03:04:54.874Z,2.97
2023-04-04T03:07:22.849Z,4.40
2023-04-04T03:09:50.171Z,3.03
2023-04-04T03:12:20.635Z,3.05
2023-04-04T03:14:47.946Z,4.40
2023-04-04T03:17:15.529Z,4.75
2023-04-04T03:19:42.669Z,3.70
2023-04-04T03:22:09.822Z,5.38
2023-04-04T03:24:38.162Z,3.55
2023-04-04T03:27:06.286Z,4.10
2023-04-04T03:29:33.423Z,4.15
2023-04-04T03:32:00.979Z,3.80
2023-04-04T03:34:28.250Z,5.05
2023-04-04T03:36:55.525Z,2.85
2023-04-04T03:39:22.706Z,3.80
2023-04-04T03:41:49.965Z,5.50
2023-04-04T03:44:17.128Z,3.08
2023-04-04T03:46:44.321Z,4.57
2023-04-04T03:49:11.507Z,6.43
2023-04-04T03:51:38.657Z,5.28
2023-04-04T03:54:05.881Z,5.82
2023-04-04T03:56:33.073Z,2.45
2023-04-04T03:59:00.615Z,3.50
2023-04-04T04:01:27.777Z,4.88
2023-04-04T04:03:55.057Z,6.07
2023-04-04T04:06:22.327Z,4.25
2023-04-04T04:08:49.475Z,6.57
2023-04-04T04:11:16.597Z,5.30
2023-04-04T04:13:43.760Z,6.30
2023-04-04T04:16:11.408Z,4.80
2023-04-04T04:18:39.211Z,4.50
2023-04-04T04:21:06.772Z,8.48
2023-04-04T04:23:33.947Z,5.50
2023-04-04T04:26:01.222Z,7.18
2023-04-04T04:28:33.043Z,4.00
2023-04-04T04:31:05.830Z,6.22
2023-04-04T04:33:33.455Z,4.53
2023-04-04T04:36:04.268Z,3.97
2023-04-04T04:38:31.569Z,7.57
2023-04-04T04:40:58.773Z,4.68
2023-04-04T04:43:26.378Z,3.97
2023-04-04T04:45:53.491Z,6.97
2023-04-04T04:48:20.996Z,3.25
2023-04-04T04:50:48.604Z,5.00
2023-04-04T04:53:16.075Z,3.63
2023-04-04T04:55:43.789Z,6.55
2023-04-04T04:58:11.161Z,6.20
2023-04-04T05:00:38.999Z,4.65
2023-04-04T05:03:09.604Z,5.90
2023-04-04T05:05:36.859Z,7.90
2023-04-04T05:08:04.404Z,5.22
2023-04-04T05:10:32.053Z,4.97
2023-04-04T05:12:59.247Z,5.93
2023-04-04T05:15:29.107Z,5.90
2023-04-04T05:17:56.322Z,9.98
2023-04-04T05:20:23.537Z,4.88
2023-04-04T05:22:51.665Z,8.38
2023-04-04T05:25:19.069Z,5.75
2023-04-04T05:27:49.676Z,5.60
2023-04-04T05:30:17.039Z,6.35
2023-04-04T05:32:47.470Z,8.63
2023-04-04T05:35:14.722Z,6.25
2023-04-04T05:37:42.023Z,5.90
2023-04-04T05:40:09.491Z,4.63
2023-04-04T05:42:36.685Z,5.03
2023-04-04T05:45:03.880Z,9.95
2023-04-04T05:47:31.310Z,4.03
2023-04-04T05:49:58.529Z,6.60
2023-04-04T05:52:25.737Z,9.90
2023-04-04T05:54:52.887Z,6.65
2023-04-04T05:57:20.079Z,6.80
2023-04-04T05:59:47.234Z,10.60
2023-04-04T06:02:14.427Z,6.07
2023-04-04T06:04:41.633Z,6.03
2023-04-04T06:07:08.793Z,6.30
2023-04-04T06:09:36.315Z,5.45
2023-04-04T06:12:06.888Z,6.18
2023-04-04T06:14:34.018Z,5.53
2023-04-04T06:17:01.281Z,5.07
2023-04-04T06:19:28.388Z,5.15
2023-04-04T06:21:55.906Z,5.53
2023-04-04T06:24:23.036Z,5.53
2023-04-04T06:26:51.683Z,6.80
2023-04-04T06:29:18.933Z,4.90
2023-04-04T06:31:46.262Z,7.30
2023-04-04T06:34:13.464Z,7.47
2023-04-04T06:36:40.810Z,5.35
2023-04-04T06:39:08.113Z,6.60
2023-04-04T06:41:35.264Z,4.75
2023-04-04T06:44:02.441Z,8.82
2023-04-04T06:46:31.442Z,5.90
2023-04-04T06:48:58.576Z,4.55
2023-04-04T06:51:26.008Z,6.32
2023-04-04T06:53:53.168Z,4.70
2023-04-04T06:56:20.537Z,5.45
2023-04-04T06:58:47.721Z,5.18
2023-04-04T07:01:14.915Z,4.47
2023-04-04T07:03:42.311Z,4.95
2023-04-04T07:06:09.480Z,5.40
2023-04-04T07:08:37.235Z,4.65
2023-04-04T07:11:05.072Z,5.85
2023-04-04T07:13:32.233Z,4.43
2023-04-04T07:15:59.413Z,3.97
2023-04-04T07:18:27.244Z,3.90
2023-04-04T07:20:54.399Z,5.97
2023-04-04T07:23:21.564Z,4.80
2023-04-04T07:25:48.741Z,4.13
2023-04-04T07:28:15.924Z,7.65
2023-04-04T07:30:43.283Z,5.22
2023-04-04T07:33:10.776Z,7.25
2023-04-04T07:35:38.341Z,4.07
2023-04-04T07:38:05.491Z,4.32
2023-04-04T07:40:32.816Z,3.92
2023-04-04T07:42:59.946Z,5.07
2023-04-04T07:45:27.045Z,7.30
2023-04-04T07:47:54.356Z,4.60
2023-04-04T07:50:22.503Z,3.72
2023-04-04T07:52:54.488Z,4.43
2023-04-04T07:55:21.634Z,3.90
2023-04-04T07:57:48.806Z,3.50
2023-04-04T08:00:17.626Z,4.65
2023-04-04T08:02:45.659Z,4.68
2023-04-04T08:05:12.949Z,4.22
2023-04-04T08:07:40.122Z,5.20
2023-04-04T08:10:07.848Z,4.97
2023-04-04T08:12:35.112Z,3.47
2023-04-04T08:15:02.343Z,4.15
2023-04-04T08:17:29.570Z,4.05
2023-04-04T08:19:56.754Z,3.78
2023-04-04T08:22:23.892Z,5.50
2023-04-04T08:24:51.356Z,4.25
2023-04-04T08:27:18.688Z,5.30
2023-04-04T08:29:46.863Z,5.78
2023-04-04T08:32:14.779Z,4.60
2023-04-04T08:34:42.342Z,5.43
2023-04-04T08:37:09.738Z,5.25
2023-04-04T08:39:38.051Z,4.22
2023-04-04T08:42:06.178Z,6.10
2023-04-04T08:44:34.648Z,5.75
2023-04-04T08:47:08.409Z,6.57
2023-04-04T08:49:41.469Z,5.63
2023-04-04T08:52:09.664Z,4.47
2023-04-04T08:54:39.483Z,4.97
2023-04-04T08:57:08.397Z,5.55
2023-04-04T08:59:35.907Z,4.65
2023-04-04T09:02:06.170Z,4.10
2023-04-04T09:04:33.403Z,5.60
2023-04-04T09:07:04.505Z,4.65
2023-04-04T09:09:32.920Z,4.25
2023-04-04T09:12:01.487Z,4.72
2023-04-04T09:14:30.906Z,5.55
2023-04-04T09:16:58.218Z,4.90
2023-04-04T09:19:26.476Z,3.97
2023-04-04T09:21:53.771Z,3.97
2023-04-04T09:24:20.950Z,4.00
2023-04-04T09:26:48.845Z,7.85
2023-04-04T09:29:18.902Z,4.07
2023-04-04T09:31:46.952Z,4.53
2023-04-04T09:34:14.780Z,15.32
2023-04-04T09:36:42.118Z,5.55
2023-04-04T09:39:09.493Z,5.85
2023-04-04T09:41:38.288Z,5.90
2023-04-04T09:44:07.317Z,6.53
2023-04-04T09:46:36.581Z,3.60
2023-04-04T09:49:04.770Z,2.60
2023-04-04T09:51:42.672Z,3.90
2023-04-04T09:54:18.602Z,4.03
2023-04-04T09:56:50.086Z,5.30
2023-04-04T09:59:20.362Z,6.15
2023-04-04T10:01:47.734Z,3.63
2023-04-04T10:04:15.845Z,5.03
2023-04-04T10:06:44.776Z,5.82
2023-04-04T10:09:11.990Z,3.15
2023-04-04T10:11:39.452Z,3.15
2023-04-04T10:14:07.070Z,4.38
2023-04-04T10:16:37.649Z,5.57
2023-04-04T10:19:07.915Z,4.43
2023-04-04T10:21:35.841Z,5.72
2023-04-04T10:24:09.110Z,4.78
2023-04-04T10:26:37.122Z,4.38
2023-04-04T10:29:05.877Z,4.13
2023-04-04T10:31:34.402Z,4.60
2023-04-04T10:34:01.854Z,5.45
2023-04-04T10:36:31.639Z,6.40
2023-04-04T10:39:02.401Z,3.47
2023-04-04T10:41:32.662Z,7.68
2023-04-04T10:44:01.599Z,5.68
2023-04-04T10:46:31.122Z,4.18
2023-04-04T10:49:02.245Z,5.90
2023-04-04T10:51:33.894Z,4.60
2023-04-04T10:56:31.844Z,5.65
2023-04-04T10:59:14.884Z,3.45
2023-04-04T11:02:11.587Z,4.43
2023-04-04T11:04:42.471Z,3.75
2023-04-04T11:07:20.572Z,6.45
2023-04-04T11:09:48.404Z,4.75
2023-04-04T11:12:20.474Z,5.38
2023-04-04T11:14:59.588Z,5.18
2023-04-04T11:17:44.847Z,3.60
2023-04-04T11:22:05.791Z,3.80
2023-04-04T11:24:32.916Z,6.32
2023-04-04T11:27:01.016Z,4.20
2023-04-04T11:29:48.180Z,4.20
2023-04-04T11:33:00.256Z,3.63
2023-04-04T11:35:34.013Z,5.50
2023-04-04T11:38:01.950Z,3.60
2023-04-04T11:40:35.673Z,3.25
2023-04-04T11:43:07.665Z,4.60
2023-04-04T11:45:36.038Z,5.75
2023-04-04T11:48:05.146Z,4.68
2023-04-04T11:50:36.797Z,4.95
2023-04-04T11:53:06.565Z,3.97
2023-04-04T11:55:33.759Z,8.80
2023-04-04T11:58:12.132Z,4.68
2023-04-04T12:00:41.535Z,5.10
2023-04-04T12:03:11.582Z,6.90
2023-04-04T12:05:40.193Z,4.72
2023-04-04T12:08:08.762Z,7.20
2023-04-04T12:10:36.662Z,5.90
2023-04-04T12:13:07.852Z,4.60
2023-04-04T12:15:38.484Z,4.25
2023-04-04T12:18:09.860Z,4.03
2023-04-04T12:20:41.552Z,5.60
2023-04-04T12:23:09.564Z,11.50
2023-04-04T12:25:39.973Z,6.85
2023-04-04T12:28:08.168Z,5.88
2023-04-04T12:30:35.540Z,4.35
2023-04-04T12:33:02.850Z,5.57
2023-04-04T12:35:31.420Z,5.53
2023-04-04T12:38:07.538Z,4.78
2023-04-04T12:40:38.808Z,4.75
2023-04-04T12:43:06.842Z,6.15
2023-04-04T12:45:38.101Z,5.13
2023-04-04T12:48:10.157Z,5.30
2023-04-04T12:50:49.285Z,4.40
2023-04-04T12:53:27.872Z,5.22
2023-04-04T12:55:57.202Z,6.18
2023-04-04T12:58:26.074Z,6.28
2023-04-04T13:00:54.363Z,3.80
2023-04-04T13:03:22.788Z,4.95
2023-04-04T13:05:50.209Z,5.82
2023-04-04T13:08:17.735Z,5.38
2023-04-04T13:11:00.236Z,5.03
2023-04-04T13:13:33.180Z,5.15
2023-04-04T13:16:00.426Z,5.40
2023-04-04T13:18:32.766Z,4.65
2023-04-04T13:20:59.952Z,5.03
2023-04-04T13:23:27.179Z,4.00
2023-04-04T13:25:54.373Z,3.53
2023-04-04T13:28:21.601Z,5.57
2023-04-04T13:30:49.438Z,4.43
2023-04-04T13:33:17.781Z,4.68
2023-04-04T13:35:45.835Z,4.38
2023-04-04T13:38:13.804Z,4.72
2023-04-04T13:40:41.184Z,3.65
2023-04-04T13:43:08.880Z,6.18
2023-04-04T13:45:36.298Z,3.65
2023-04-04T13:48:04.404Z,5.97
2023-04-04T13:50:32.834Z,3.65
2023-04-04T13:53:00.046Z,4.50
2023-04-04T13:55:27.755Z,7.07
2023-04-04T13:57:54.934Z,4.10
2023-04-04T14:00:22.413Z,5.30
2023-04-04T14:02:53.477Z,5.57
2023-04-04T14:05:22.310Z,4.72
2023-04-04T14:07:49.517Z,4.45
2023-04-04T14:10:17.170Z,4.32
2023-04-04T14:12:44.357Z,5.38
2023-04-04T14:15:12.337Z,5.80
2023-04-04T14:17:39.632Z,3.90
2023-04-04T14:20:07.881Z,5.07
2023-04-04T14:22:35.031Z,3.90
2023-04-04T14:25:02.295Z,4.88
2023-04-04T14:27:29.524Z,4.78
2023-04-04T14:29:56.680Z,6.82
2023-04-04T14:32:24.872Z,3.85
2023-04-04T14:34:52.056Z,3.72
2023-04-04T14:37:19.695Z,3.67
2023-04-04T14:39:47.349Z,3.67
2023-04-04T14:42:14.805Z,4.63
2023-04-04T14:44:42.208Z,12.52
2023-04-04T14:47:09.557Z,4.35
2023-04-04T14:49:36.823Z,4.80
2023-04-04T14:52:04.089Z,4.90
2023-04-04T14:54:31.284Z,6.13
2023-04-04T14:56:58.628Z,4.25
2023-04-04T14:59:25.949Z,4.30
2023-04-04T15:01:53.170Z,6.55
2023-04-04T15:04:20.397Z,4.28
2023-04-04T15:06:47.592Z,4.32
2023-04-04T15:09:14.741Z,4.55
2023-04-04T15:11:41.886Z,4.47
2023-04-04T15:14:09.044Z,5.50
2023-04-04T15:16:36.458Z,4.78
2023-04-04T15:19:03.676Z,4.78
2023-04-04T15:21:31.659Z,6.57
2023-04-04T15:23:59.051Z,4.22
2023-04-04T15:26:26.387Z,5.10
2023-04-04T15:28:53.602Z,4.88
2023-04-04T15:31:20.997Z,4.43
2023-04-04T15:33:48.565Z,5.30
2023-04-04T15:36:15.755Z,5.22
2023-04-04T15:38:42.930Z,5.05
2023-04-04T15:41:10.528Z,6.97
2023-04-04T15:43:37.732Z,6.97
2023-04-04T15:46:05.515Z,4.97
2023-04-04T15:48:34.299Z,4.28
2023-04-04T15:51:05.015Z,5.00
2023-04-04T15:53:32.490Z,6.25
2023-04-04T15:56:00.129Z,6.30
2023-04-04T15:58:27.378Z,5.53
2023-04-04T16:00:55.879Z,4.63
2023-04-04T16:03:24.607Z,4.22
2023-04-04T16:05:52.226Z,3.38
2023-04-04T16:08:19.349Z,5.30
2023-04-04T16:10:46.512Z,3.63
2023-04-04T16:13:14.176Z,4.75
2023-04-04T16:15:41.380Z,5.13
2023-04-04T16:18:08.815Z,3.63
2023-04-04T16:20:36.691Z,6.88
2023-04-04T16:23:03.905Z,4.40
2023-04-04T16:25:31.208Z,4.80
2023-04-04T16:27:58.412Z,5.32
2023-04-04T16:30:25.852Z,4.43
2023-04-04T16:32:53.082Z,4.47
2023-04-04T16:35:20.369Z,4.80
2023-04-04T16:37:47.561Z,6.05
2023-04-04T16:40:15.529Z,7.05
2023-04-04T16:42:42.871Z,3.85
2023-04-04T16:45:10.426Z,5.70
2023-04-04T16:47:37.840Z,4.57
2023-04-04T16:50:06.098Z,4.32
2023-04-04T16:52:33.375Z,6.22
2023-04-04T16:55:00.693Z,6.47
2023-04-04T16:57:28.207Z,6.07
2023-04-04T16:59:55.484Z,9.88
2023-04-04T17:02:22.708Z,6.20
2023-04-04T17:04:51.184Z,4.63
2023-04-04T17:07:18.603Z,6.95
2023-04-04T17:09:47.259Z,3.58
2023-04-04T17:12:15.687Z,5.38
2023-04-04T17:14:42.856Z,4.50
2023-04-04T17:17:10.416Z,6.70
2023-04-04T17:19:41.665Z,6.75
2023-04-04T17:22:08.769Z,5.97
2023-04-04T17:24:36.058Z,4.18
2023-04-04T17:27:03.218Z,6.32
2023-04-04T17:29:30.772Z,5.20
2023-04-04T17:31:58.462Z,4.10
2023-04-04T17:34:26.105Z,3.42
2023-04-04T17:36:54.080Z,6.72
2023-04-04T17:39:21.844Z,5.70
2023-04-04T17:41:49.327Z,5.38
2023-04-04T17:44:17.181Z,5.13
2023-04-04T17:46:45.338Z,4.25
2023-04-04T17:49:12.965Z,4.50
2023-04-04T17:51:40.166Z,4.80
2023-04-04T17:54:07.453Z,6.90
2023-04-04T17:56:34.717Z,4.55
2023-04-04T17:59:02.387Z,4.43
2023-04-04T18:01:29.754Z,3.70
2023-04-04T18:03:57.825Z,4.32
2023-04-04T18:06:25.174Z,3.45
2023-04-04T18:08:52.426Z,4.40
2023-04-04T18:11:19.594Z,5.05
2023-04-04T18:13:46.962Z,4.05
2023-04-04T18:16:14.518Z,6.03
2023-04-04T18:18:41.747Z,3.40
2023-04-04T18:21:09.007Z,4.93
2023-04-04T18:23:36.444Z,5.60
2023-04-04T18:26:03.884Z,5.45
2023-04-04T18:28:31.040Z,5.15
2023-04-04T18:30:59.497Z,5.20
2023-04-04T18:33:27.930Z,5.45
2023-04-04T18:35:55.275Z,6.90
2023-04-04T18:38:25.054Z,4.30
2023-04-04T18:41:01.559Z,7.78
2023-04-04T18:43:29.699Z,6.82
2023-04-04T18:45:58.051Z,7.82
2023-04-04T18:48:25.521Z,7.85
2023-04-04T18:50:52.731Z,7.35
2023-04-04T18:53:19.863Z,7.43
2023-04-04T18:56:00.167Z,13.27
2023-04-04T18:58:27.406Z,9.40
2023-04-04T19:00:55.784Z,8.88
2023-04-04T19:03:23.341Z,8.30
2023-04-04T19:05:50.813Z,10.00
2023-04-04T19:08:18.535Z,8.90
2023-04-04T19:10:51.010Z,6.95
2023-04-04T19:13:18.694Z,8.63
2023-04-04T19:15:46.881Z,6.88
2023-04-04T19:18:14.215Z,10.85
2023-04-04T19:20:43.464Z,11.02
2023-04-04T19:23:10.928Z,8.82
2023-04-04T19:25:38.172Z,7.22
2023-04-04T19:28:05.519Z,10.63
2023-04-04T19:30:35.739Z,10.32
2023-04-04T19:33:05.803Z,9.18
2023-04-04T19:36:09.602Z,9.07
2023-04-04T19:38:37.280Z,7.97
2023-04-04T19:41:08.128Z,7.07
2023-04-04T19:43:35.556Z,8.25
2023-04-04T19:46:08.634Z,8.82
2023-04-04T19:48:52.310Z,8.50
2023-04-04T19:51:22.231Z,7.03
2023-04-04T19:54:11.463Z,7.28
2023-04-04T19:56:38.674Z,7.82
2023-04-04T19:59:09.062Z,8.23
2023-04-04T20:01:40.574Z,12.13
2023-04-04T20:04:12.082Z,7.85
2023-04-04T20:06:39.975Z,7.03
2023-04-04T20:09:15.135Z,8.70
2023-04-04T20:11:42.400Z,8.93
2023-04-04T20:14:10.209Z,7.25
2023-04-04T20:16:37.542Z,9.93
2023-04-04T20:19:08.742Z,8.85
2023-04-04T20:21:36.160Z,7.53
2023-04-04T20:24:05.173Z,6.90
2023-04-04T20:26:38.102Z,9.60
2023-04-04T20:29:12.443Z,7.78
2023-04-04T20:31:42.439Z,9.05
2023-04-04T20:34:28.688Z,7.80
2023-04-04T20:36:55.883Z,8.27
2023-04-04T20:39:41.429Z,7.63
2023-04-04T20:42:34.472Z,7.85
2023-04-04T20:45:01.620Z,7.38
2023-04-04T20:47:42.816Z,8.55
2023-04-04T20:50:20.556Z,7.68
2023-04-04T20:52:49.592Z,8.60
2023-04-04T20:55:18.840Z,7.75
2023-04-04T20:57:49.733Z,8.10
2023-04-04T21:00:29.190Z,7.05
2023-04-04T21:02:57.531Z,8.35
2023-04-04T21:05:30.945Z,6.70
2023-04-04T21:07:58.689Z,10.90
2023-04-04T21:10:28.720Z,9.93
2023-04-04T21:12:57.572Z,8.02
2023-04-04T21:15:29.106Z,7.90
2023-04-04T21:17:56.825Z,7.20
2023-04-04T21:20:42.978Z,7.32
2023-04-04T21:23:30.382Z,7.88
2023-04-04T21:26:00.966Z,8.00
2023-04-04T21:28:33.171Z,12.10
2023-04-04T21:31:00.962Z,10.52
2023-04-04T21:33:28.534Z,8.27
2023-04-04T21:35:58.877Z,10.80
2023-04-04T21:38:35.938Z,9.95
2023-04-04T21:41:09.407Z,8.00
2023-04-04T21:43:36.536Z,8.82
2023-04-04T21:46:03.702Z,9.32
2023-04-04T21:48:31.038Z,11.02
2023-04-04T21:50:58.188Z,8.65
2023-04-04T21:53:25.469Z,11.15
2023-04-04T21:55:52.609Z,9.68
2023-04-04T21:58:19.824Z,8.82
2023-04-04T22:00:46.977Z,11.60
2023-04-04T22:03:14.567Z,12.35
2023-04-04T22:05:41.741Z,8.75
2023-04-04T22:08:09.255Z,10.00
2023-04-04T22:13:05.953Z,10.63
2023-04-04T22:15:33.097Z,8.57
2023-04-04T22:18:03.608Z,12.20
2023-04-04T22:20:32.188Z,10.68
2023-04-04T22:23:05.774Z,12.70
2023-04-04T22:25:33.924Z,10.27
2023-04-04T22:28:01.865Z,11.93
2023-04-04T22:30:29.313Z,12.40
2023-04-04T22:32:59.718Z,14.48
2023-04-04T22:35:28.055Z,12.02
2023-04-04T22:37:57.433Z,15.02
2023-04-04T22:40:24.635Z,14.57
2023-04-04T22:42:51.730Z,17.02
2023-04-04T22:45:18.934Z,14.32
2023-04-04T22:47:47.401Z,13.70
2023-04-04T22:50:16.077Z,12.93
2023-04-04T22:52:43.876Z,14.73
2023-04-04T22:55:11.565Z,15.18
2023-04-04T22:57:38.756Z,15.93
2023-04-04T23:00:11.158Z,15.65
2023-04-04T23:02:41.208Z,15.05
2023-04-04T23:05:09.492Z,17.98
2023-04-04T23:07:36.871Z,13.95
2023-04-04T23:10:07.594Z,15.73
2023-04-04T23:12:34.978Z,16.10
2023-04-04T23:15:03.820Z,13.55
2023-04-04T23:17:32.594Z,12.75
2023-04-04T23:20:00.503Z,15.55
2023-04-04T23:22:28.178Z,14.18
2023-04-04T23:24:55.625Z,15.57
2023-04-04T23:27:22.744Z,14.45
2023-04-04T23:29:50.692Z,13.32
2023-04-04T23:32:17.808Z,16.73
2023-04-04T23:34:44.933Z,17.80
2023-04-04T23:37:12.110Z,17.90
2023-04-04T23:39:39.220Z,20.90
2023-04-04T23:42:06.416Z,19.27
2023-04-04T23:44:33.675Z,17.33
2023-04-04T23:47:01.151Z,16.73
2023-04-04T23:49:28.366Z,16.25
2023-04-04T23:51:55.825Z,19.52
2023-04-04T23:54:23.471Z,22.75
2023-04-04T23:56:50.710Z,15.75
2023-04-04T23:59:17.903Z,19.60
